Time;durP1;ratioP1;P1;durP2;ratioP2;P2;SDS_P1;SDS_P2;PMS_P1;PMS_P2;Temp;Humidity;BMP_temperature;BMP_pressure;BME280_temperature;BME280_humidity;BME280_pressure;Samples;Min_cycle;Max_cycle;Signal;HPM_P1;HPM_P2
2023/04/17 04:16:44;;;;;;;;;33.00;30.50;;;;;;;;6492392;39;9749;-54
2023/04/17 04:22:48;;;;;;;;;39.00;37.75;;;;;;;;6490302;39;8911;-54
2023/04/17 04:28:53;;;;;;;;;38.00;33.00;;;;;;;;6491585;39;8852;-55
2023/04/17 04:35:24;;;;;;;;;34.50;30.50;;;;;;;;6486952;46;8941;-52
2023/04/17 04:41:28;;;;;;;;;25.25;25.25;;;;;;;;6492637;31;8972;-54
2023/04/17 04:47:31;;;;;;;;;26.50;23.00;;;;;;;;6490509;39;8963;-54
2023/04/17 04:53:34;;;;;;;;;23.75;21.00;;;;;;;;6490503;39;9728;-54
2023/04/17 04:59:37;;;;;;;;;27.75;25.50;;;;;;;;6491294;31;8898;-51
2023/04/17 05:05:58;;;;;;;;;28.75;26.75;;;;;;;;6490580;31;8920;-54
2023/04/17 05:12:11;;;;;;;;;30.00;26.50;;;;;;;;6310586;39;10000526;-53
2023/04/17 05:18:14;;;;;;;;;24.25;23.50;;;;;;;;6490337;46;8853;-54
2023/04/17 05:24:18;;;;;;;;;27.00;27.00;;;;;;;;6489608;46;8902;-53
2023/04/17 05:30:23;;;;;;;;;26.00;23.50;;;;;;;;6491448;39;9472;-54
2023/04/17 05:36:35;;;;;;;;;28.50;28.00;;;;;;;;6489384;46;8916;-56
2023/04/17 05:42:41;;;;;;;;;29.00;25.50;;;;;;;;6491715;39;8880;-54
2023/04/17 05:48:44;;;;;;;;;30.25;29.00;;;;;;;;6489302;46;8884;-55
2023/04/17 05:54:48;;;;;;;;;31.75;29.00;;;;;;;;6490863;31;8844;-56
2023/04/17 06:00:54;;;;;;;;;31.50;30.50;;;;;;;;6490362;39;9068;-55
2023/04/17 06:06:58;;;;;;;;;29.25;27.75;;;;;;;;6489792;31;9082;-53
2023/04/17 06:13:01;;;;;;;;;28.00;24.00;;;;;;;;6490198;46;8916;-54
2023/04/17 06:19:06;;;;;;;;;34.75;31.75;;;;;;;;6490013;39;9016;-54
2023/04/17 06:25:09;;;;;;;;;34.50;31.00;;;;;;;;6489865;46;8869;-55
2023/04/17 06:31:12;;;;;;;;;28.50;26.75;;;;;;;;6491122;31;8836;-54
2023/04/17 06:37:15;;;;;;;;;32.25;30.75;;;;;;;;6490463;39;9511;-53
2023/04/17 06:43:17;;;;;;;;;26.75;23.00;;;;;;;;6489906;47;8913;-57
2023/04/17 06:49:21;;;;;;;;;26.50;21.50;;;;;;;;6489761;39;8843;-53
2023/04/17 06:55:25;;;;;;;;;29.75;25.75;;;;;;;;6490093;39;8884;-52
2023/04/17 07:01:30;;;;;;;;;28.50;22.25;;;;;;;;6490172;39;8874;-53
2023/04/17 07:07:35;;;;;;;;;25.50;24.25;;;;;;;;6489344;47;8897;-54
2023/04/17 07:13:37;;;;;;;;;25.00;22.00;;;;;;;;6490631;31;8883;-53
2023/04/17 07:19:39;;;;;;;;;16.25;12.25;;;;;;;;6490827;31;8931;-53
2023/04/17 07:25:42;;;;;;;;;24.75;24.50;;;;;;;;6490676;39;8885;-54
2023/04/17 07:31:45;;;;;;;;;28.50;22.50;;;;;;;;6490815;31;8868;-54
2023/04/17 07:37:48;;;;;;;;;28.25;21.75;;;;;;;;6489851;31;8885;-55
2023/04/17 07:43:50;;;;;;;;;20.50;19.00;;;;;;;;6490431;39;8919;-54
2023/04/17 07:49:53;;;;;;;;;20.50;20.50;;;;;;;;6490809;46;9056;-52
2023/04/17 07:55:55;;;;;;;;;19.00;19.00;;;;;;;;6492495;39;8867;-53
2023/04/17 08:01:57;;;;;;;;;26.25;20.00;;;;;;;;6491916;46;8893;-54
2023/04/17 08:08:01;;;;;;;;;18.50;18.25;;;;;;;;6492013;39;8844;-55
2023/04/17 08:14:05;;;;;;;;;24.50;21.00;;;;;;;;6490763;39;8900;-53
2023/04/17 08:20:12;;;;;;;;;25.00;22.50;;;;;;;;6488818;46;8895;-52
2023/04/17 08:26:17;;;;;;;;;24.50;19.50;;;;;;;;6489191;31;8923;-55
2023/04/17 08:32:20;;;;;;;;;34.75;28.50;;;;;;;;6488090;46;8975;-52
2023/04/17 08:38:26;;;;;;;;;45.00;36.00;;;;;;;;6489180;39;8853;-54
2023/04/17 08:44:28;;;;;;;;;34.75;32.00;;;;;;;;6488975;39;9136;-54
2023/04/17 08:50:31;;;;;;;;;38.00;32.00;;;;;;;;6488479;39;8897;-54
2023/04/17 08:56:34;;;;;;;;;32.50;29.50;;;;;;;;6489004;39;8983;-53
2023/04/17 09:02:55;;;;;;;;;37.50;32.00;;;;;;;;6487643;39;9021;-54
2023/04/17 09:09:03;;;;;;;;;38.00;34.75;;;;;;;;6488564;39;8869;-52
2023/04/17 09:15:16;;;;;;;;;42.00;33.00;;;;;;;;6488995;31;8933;-51
2023/04/17 09:21:19;;;;;;;;;34.50;32.75;;;;;;;;6487668;46;8929;-53
2023/04/17 09:27:23;;;;;;;;;34.25;31.00;;;;;;;;6489026;39;9028;-53
2023/04/17 09:33:26;;;;;;;;;37.75;34.00;;;;;;;;6487562;46;8846;-53
2023/04/17 09:39:28;;;;;;;;;42.00;36.00;;;;;;;;6488052;39;8890;-53
2023/04/17 09:45:35;;;;;;;;;45.50;38.25;;;;;;;;6488061;39;8963;-54
2023/04/17 09:51:38;;;;;;;;;33.50;33.00;;;;;;;;6487541;39;8912;-52
2023/04/17 09:57:41;;;;;;;;;41.75;37.25;;;;;;;;6488598;39;8880;-54
2023/04/17 10:03:46;;;;;;;;;30.50;27.75;;;;;;;;6487927;39;8917;-51
2023/04/17 10:09:48;;;;;;;;;33.75;30.50;;;;;;;;6487765;46;8868;-53
2023/04/17 10:15:52;;;;;;;;;38.00;35.00;;;;;;;;6486984;39;8960;-52
2023/04/17 10:22:19;;;;;;;;;57.25;42.75;;;;;;;;6488662;39;8856;-53
2023/04/17 10:28:48;;;;;;;;;48.75;39.25;;;;;;;;6487312;31;8959;-54
2023/04/17 10:34:59;;;;;;;;;48.00;40.00;;;;;;;;6487461;39;8899;-51
2023/04/17 10:41:08;;;;;;;;;40.75;35.75;;;;;;;;6488547;39;9013;-55
2023/04/17 10:47:13;;;;;;;;;0.00;0.00;;;;;;;;6487718;47;8979;-53
2023/04/17 10:53:38;;;;;;;;;0.00;0.00;;;;;;;;6487969;31;8850;-53
2023/04/17 10:59:42;;;;;;;;;0.00;0.00;;;;;;;;6487209;47;8908;-54
2023/04/17 11:05:46;;;;;;;;;0.00;0.00;;;;;;;;6487576;47;8914;-54
2023/04/17 11:11:49;;;;;;;;;0.00;0.00;;;;;;;;6486375;39;9130;-55
2023/04/17 11:17:54;;;;;;;;;0.00;0.00;;;;;;;;6487500;31;8886;-53
2023/04/17 11:24:02;;;;;;;;;0.00;0.00;;;;;;;;6487805;39;9027;-51
2023/04/17 11:30:05;;;;;;;;;0.00;0.00;;;;;;;;6488265;46;8890;-53
2023/04/17 11:36:07;;;;;;;;;0.00;0.00;;;;;;;;6489584;39;8984;-52
2023/04/17 11:42:10;;;;;;;;;0.00;0.00;;;;;;;;6489179;39;8929;-55
2023/04/17 11:48:14;;;;;;;;;0.00;0.00;;;;;;;;6489061;46;8904;-53
2023/04/17 11:54:25;;;;;;;;;0.00;0.00;;;;;;;;6489442;31;9485;-54
2023/04/17 12:00:30;;;;;;;;;0.00;0.00;;;;;;;;6488728;46;8840;-54
2023/04/17 12:06:36;;;;;;;;;0.00;0.00;;;;;;;;6488928;39;9519;-54
2023/04/17 12:12:40;;;;;;;;;0.00;0.00;;;;;;;;6489266;39;8930;-53
2023/04/17 12:18:43;;;;;;;;;0.00;0.00;;;;;;;;6488721;31;8865;-56
2023/04/17 12:24:45;;;;;;;;;0.00;0.00;;;;;;;;6487540;39;8958;-54
2023/04/17 12:30:47;;;;;;;;;0.00;0.00;;;;;;;;6487592;46;8935;-55
2023/04/17 12:36:50;;;;;;;;;0.00;0.00;;;;;;;;6487726;39;9527;-53
2023/04/17 12:42:52;;;;;;;;;0.00;0.00;;;;;;;;6487282;39;8969;-51
2023/04/17 12:48:57;;;;;;;;;0.00;0.00;;;;;;;;6486831;31;8917;-54
2023/04/17 12:55:00;;;;;;;;;0.00;0.00;;;;;;;;6487461;31;8927;-54
2023/04/17 13:01:02;;;;;;;;;0.00;0.00;;;;;;;;6488725;31;8889;-54
2023/04/17 13:07:05;;;;;;;;;0.00;0.00;;;;;;;;6488262;31;8922;-53
2023/04/17 13:13:10;;;;;;;;;0.00;0.00;;;;;;;;6487454;39;8992;-55
2023/04/17 13:19:13;;;;;;;;;0.00;0.00;;;;;;;;6487146;46;8948;-55
2023/04/17 13:25:16;;;;;;;;;0.00;0.00;;;;;;;;6487466;39;8901;-52
2023/04/17 13:31:18;;;;;;;;;33.50;28.75;;;;;;;;6487689;31;8905;-54
2023/04/17 13:37:21;;;;;;;;;34.50;34.00;;;;;;;;6486767;31;8893;-53
2023/04/17 13:43:23;;;;;;;;;39.75;36.50;;;;;;;;6486776;46;8912;-56
2023/04/17 13:49:26;;;;;;;;;36.00;30.33;;;;;;;;6487029;39;9502;-54
2023/04/17 13:55:28;;;;;;;;;34.25;30.50;;;;;;;;6486829;39;9022;-54
2023/04/17 14:01:31;;;;;;;;;25.50;23.75;;;;;;;;6486893;39;8887;-53
2023/04/17 14:07:34;;;;;;;;;29.75;24.75;;;;;;;;6486561;46;8961;-53
2023/04/17 14:13:37;;;;;;;;;25.00;22.75;;;;;;;;6486975;31;8966;-52
2023/04/17 14:19:39;;;;;;;;;31.75;29.00;;;;;;;;6486340;46;8984;-52
2023/04/17 14:25:41;;;;;;;;;25.00;21.25;;;;;;;;6486698;39;9014;-55
2023/04/17 14:31:44;;;;;;;;;33.25;30.00;;;;;;;;6486436;39;8913;-54
2023/04/17 14:37:47;;;;;;;;;31.75;29.50;;;;;;;;6486947;39;8915;-55
2023/04/17 14:43:49;;;;;;;;;28.50;26.00;;;;;;;;6486724;46;8955;-54
2023/04/17 14:49:52;;;;;;;;;34.50;29.75;;;;;;;;6486595;46;8837;-53
2023/04/17 14:55:54;;;;;;;;;30.75;28.25;;;;;;;;6487058;39;8877;-53
2023/04/17 15:01:56;;;;;;;;;36.75;32.25;;;;;;;;6488461;39;9008;-56
2023/04/17 15:07:59;;;;;;;;;34.75;32.50;;;;;;;;6488171;46;8977;-54
2023/04/17 15:14:01;;;;;;;;;29.25;28.25;;;;;;;;6488790;39;8917;-51
2023/04/17 15:20:04;;;;;;;;;34.00;26.75;;;;;;;;6494179;36;8964;-51
2023/04/17 15:26:07;;;;;;;;;20.75;19.75;;;;;;;;6488133;39;9613;-52
2023/04/17 15:32:11;;;;;;;;;26.75;26.75;;;;;;;;6487084;39;8886;-54
2023/04/17 15:38:14;;;;;;;;;29.25;27.75;;;;;;;;6488480;39;8918;-53
2023/04/17 15:44:16;;;;;;;;;30.50;29.50;;;;;;;;6488980;39;8925;-52
2023/04/17 15:50:19;;;;;;;;;19.33;16.00;;;;;;;;6487749;39;9565;-52
2023/04/17 15:56:22;;;;;;;;;29.50;26.75;;;;;;;;6488042;46;8961;-52
2023/04/17 16:02:24;;;;;;;;;28.00;26.75;;;;;;;;6487684;39;8970;-52
2023/04/17 16:08:27;;;;;;;;;31.50;28.50;;;;;;;;6487965;39;8858;-56
2023/04/17 16:14:29;;;;;;;;;34.75;30.00;;;;;;;;6486515;31;8899;-54
2023/04/17 16:20:31;;;;;;;;;28.75;27.00;;;;;;;;6488254;39;9070;-53
2023/04/17 16:26:35;;;;;;;;;33.75;31.75;;;;;;;;6487584;31;8939;-52
2023/04/17 16:32:38;;;;;;;;;32.33;27.33;;;;;;;;6487233;31;8945;-55
2023/04/17 16:38:41;;;;;;;;;28.75;28.75;;;;;;;;6487570;39;8915;-52
2023/04/17 16:44:46;;;;;;;;;26.00;24.50;;;;;;;;6487955;39;8926;-54
2023/04/17 16:50:49;;;;;;;;;32.25;30.00;;;;;;;;6487341;39;8933;-50
2023/04/17 16:56:54;;;;;;;;;34.75;31.75;;;;;;;;6487471;46;8850;-55
2023/04/17 17:02:57;;;;;;;;;35.00;30.25;;;;;;;;6487238;46;8953;-52
2023/04/17 17:08:59;;;;;;;;;34.00;31.00;;;;;;;;6487490;31;8972;-54
2023/04/17 17:15:02;;;;;;;;;35.00;30.75;;;;;;;;6487410;39;8896;-51
2023/04/17 17:21:05;;;;;;;;;36.75;35.50;;;;;;;;6486651;39;9505;-54
2023/04/17 17:27:08;;;;;;;;;28.75;27.25;;;;;;;;6487559;39;8855;-53
2023/04/17 17:33:10;;;;;;;;;24.50;24.00;;;;;;;;6487927;39;8890;-54
2023/04/17 17:39:19;;;;;;;;;32.00;30.75;;;;;;;;6487321;39;8970;-50
2023/04/17 17:45:22;;;;;;;;;22.75;22.25;;;;;;;;6486588;46;8918;-53
2023/04/17 17:51:24;;;;;;;;;41.25;33.75;;;;;;;;6487142;39;8856;-56
2023/04/17 17:57:27;;;;;;;;;36.25;32.50;;;;;;;;6486712;39;9291;-52
2023/04/17 18:03:46;;;;;;;;;37.75;32.00;;;;;;;;6487213;39;8915;-54
2023/04/17 18:09:51;;;;;;;;;28.50;23.50;;;;;;;;6487193;39;8935;-53
2023/04/17 18:15:53;;;;;;;;;30.75;30.00;;;;;;;;6487418;31;8949;-56
2023/04/17 18:21:56;;;;;;;;;31.75;26.50;;;;;;;;6487103;39;8838;-52
2023/04/17 18:27:59;;;;;;;;;27.00;26.50;;;;;;;;6486744;39;9018;-53
2023/04/17 18:34:04;;;;;;;;;41.50;33.00;;;;;;;;6486220;39;8842;-55
2023/04/17 18:40:09;;;;;;;;;30.00;27.00;;;;;;;;6486347;39;8897;-54
2023/04/17 18:46:11;;;;;;;;;40.75;35.50;;;;;;;;6486179;39;8906;-54
2023/04/17 18:52:14;;;;;;;;;30.00;30.00;;;;;;;;6514775;36;8859;-56
2023/04/17 18:58:16;;;;;;;;;33.50;30.25;;;;;;;;6486955;39;8876;-55
2023/04/17 19:04:18;;;;;;;;;24.50;24.00;;;;;;;;6485346;47;8911;-55
2023/04/17 19:10:21;;;;;;;;;27.50;25.00;;;;;;;;6486438;47;8970;-54
2023/04/17 19:16:23;;;;;;;;;18.25;17.50;;;;;;;;6487113;39;8982;-55
2023/04/17 19:22:25;;;;;;;;;28.50;22.75;;;;;;;;6487201;31;8880;-54
2023/04/17 19:28:27;;;;;;;;;25.25;21.50;;;;;;;;6487069;39;8931;-50
2023/04/17 19:34:30;;;;;;;;;23.50;18.25;;;;;;;;6485983;47;8860;-54
2023/04/17 19:40:32;;;;;;;;;16.00;14.75;;;;;;;;6486980;31;8922;-51
2023/04/17 19:46:34;;;;;;;;;25.50;23.00;;;;;;;;6488675;31;8932;-52
2023/04/17 19:52:38;;;;;;;;;17.00;15.67;;;;;;;;6488718;39;8988;-53
2023/04/17 19:58:41;;;;;;;;;20.50;20.50;;;;;;;;6488193;46;8966;-52
2023/04/17 20:04:45;;;;;;;;;21.75;17.00;;;;;;;;6487638;46;8946;-53
2023/04/17 20:10:47;;;;;;;;;22.75;18.00;;;;;;;;6487629;46;8891;-55
2023/04/17 20:16:50;;;;;;;;;20.25;19.75;;;;;;;;6488496;31;8963;-53
2023/04/17 20:22:52;;;;;;;;;21.00;21.00;;;;;;;;6488180;39;8867;-56
2023/04/17 20:28:54;;;;;;;;;17.00;17.00;;;;;;;;6487566;39;8950;-54
2023/04/17 20:34:57;;;;;;;;;18.75;16.50;;;;;;;;6487258;46;8892;-53
2023/04/17 20:40:59;;;;;;;;;19.75;16.75;;;;;;;;6487441;39;8910;-52
2023/04/17 20:47:02;;;;;;;;;18.50;17.00;;;;;;;;6488213;39;8914;-56
2023/04/17 20:53:04;;;;;;;;;21.00;20.00;;;;;;;;6487364;46;8875;-54
2023/04/17 20:59:07;;;;;;;;;22.75;21.25;;;;;;;;6488268;39;8922;-57
2023/04/17 21:05:09;;;;;;;;;20.25;20.25;;;;;;;;6487596;39;8943;-52
2023/04/17 21:11:12;;;;;;;;;21.00;18.75;;;;;;;;6488109;39;8886;-55
2023/04/17 21:17:14;;;;;;;;;17.00;17.00;;;;;;;;6488735;31;8975;-55
2023/04/17 21:23:16;;;;;;;;;22.50;19.00;;;;;;;;6487832;39;9626;-53
2023/04/17 21:29:20;;;;;;;;;21.25;20.50;;;;;;;;6487297;31;8895;-56
2023/04/17 21:35:22;;;;;;;;;19.50;18.25;;;;;;;;6487593;39;8946;-54
2023/04/17 21:41:25;;;;;;;;;21.25;20.00;;;;;;;;6487404;39;8891;-53
2023/04/17 21:47:27;;;;;;;;;23.50;20.50;;;;;;;;6486994;31;8898;-54
2023/04/17 21:53:36;;;;;;;;;22.00;22.00;;;;;;;;6487545;39;8898;-52
2023/04/17 21:59:38;;;;;;;;;22.50;22.00;;;;;;;;6487499;39;9541;-54
2023/04/17 22:05:41;;;;;;;;;18.00;15.00;;;;;;;;6486868;39;9354;-52
2023/04/17 22:11:44;;;;;;;;;24.25;19.25;;;;;;;;6486427;46;8868;-54
2023/04/17 22:17:46;;;;;;;;;21.00;18.75;;;;;;;;6487201;39;8859;-53
2023/04/17 22:24:08;;;;;;;;;30.25;25.50;;;;;;;;6487563;31;8880;-54
2023/04/17 22:37:08;;;;;;;;;24.75;20.75;;;;;;;;6486892;39;8973;-52
2023/04/17 22:49:36;;;;;;;;;28.25;26.25;;;;;;;;6486974;39;9022;-53
2023/04/17 22:55:39;;;;;;;;;26.00;20.50;;;;;;;;6487034;39;8886;-53
2023/04/17 23:01:42;;;;;;;;;24.00;23.33;;;;;;;;6486162;39;8904;-52
2023/04/17 23:07:44;;;;;;;;;25.75;24.75;;;;;;;;6486336;31;9120;-54
2023/04/17 23:13:46;;;;;;;;;21.75;20.25;;;;;;;;6486089;46;8900;-54
2023/04/17 23:19:48;;;;;;;;;27.75;21.50;;;;;;;;6487348;46;9387;-52
2023/04/17 23:25:51;;;;;;;;;20.00;20.00;;;;;;;;6489088;31;8904;-53
2023/04/17 23:31:54;;;;;;;;;27.00;25.00;;;;;;;;6489190;39;8844;-55
2023/04/17 23:37:56;;;;;;;;;26.00;23.75;;;;;;;;6487702;46;9144;-52
2023/04/17 23:43:59;;;;;;;;;32.50;26.00;;;;;;;;6488531;39;8938;-52
2023/04/17 23:50:02;;;;;;;;;29.25;27.00;;;;;;;;6488784;31;8859;-53
2023/04/17 23:56:04;;;;;;;;;23.25;22.50;;;;;;;;6488398;46;8887;-50
